sensor_id;sensor_type;location;lat;lon;timestamp;P1;durP1;ratioP1;P2;durP2;ratioP2
3070;SDS011;1546;47.208;9.038;2022-09-29T00:02:06;3.22;;;1.05;;
3070;SDS011;1546;47.208;9.038;2022-09-29T00:04:33;2.40;;;1.20;;
3070;SDS011;1546;47.208;9.038;2022-09-29T00:07:01;3.22;;;1.00;;
3070;SDS011;1546;47.208;9.038;2022-09-29T00:09:28;2.20;;;0.80;;
3070;SDS011;1546;47.208;9.038;2022-09-29T00:11:55;2.50;;;1.00;;
3070;SDS011;1546;47.208;9.038;2022-09-29T00:14:22;2.80;;;0.90;;
3070;SDS011;1546;47.208;9.038;2022-09-29T00:16:49;2.50;;;1.10;;
3070;SDS011;1546;47.208;9.038;2022-09-29T00:19:17;2.60;;;1.00;;
3070;SDS011;1546;47.208;9.038;2022-09-29T00:21:44;2.97;;;1.20;;
3070;SDS011;1546;47.208;9.038;2022-09-29T00:24:12;2.80;;;1.20;;
3070;SDS011;1546;47.208;9.038;2022-09-29T00:26:39;3.97;;;1.20;;
3070;SDS011;1546;47.208;9.038;2022-09-29T00:29:08;3.10;;;1.23;;
3070;SDS011;1546;47.208;9.038;2022-09-29T00:31:35;2.85;;;1.63;;
3070;SDS011;1546;47.208;9.038;2022-09-29T00:34:02;2.22;;;0.95;;
3070;SDS011;1546;47.208;9.038;2022-09-29T00:36:29;2.30;;;1.00;;
3070;SDS011;1546;47.208;9.038;2022-09-29T00:38:56;2.30;;;1.20;;
3070;SDS011;1546;47.208;9.038;2022-09-29T00:41:26;2.40;;;1.08;;
3070;SDS011;1546;47.208;9.038;2022-09-29T00:43:56;3.10;;;1.33;;
3070;SDS011;1546;47.208;9.038;2022-09-29T00:46:32;2.40;;;1.00;;
3070;SDS011;1546;47.208;9.038;2022-09-29T00:49:08;2.30;;;1.00;;
3070;SDS011;1546;47.208;9.038;2022-09-29T00:51:41;2.40;;;1.20;;
3070;SDS011;1546;47.208;9.038;2022-09-29T00:54:10;2.42;;;1.05;;
3070;SDS011;1546;47.208;9.038;2022-09-29T00:56:39;3.00;;;1.42;;
3070;SDS011;1546;47.208;9.038;2022-09-29T00:59:08;3.72;;;1.27;;
3070;SDS011;1546;47.208;9.038;2022-09-29T01:01:39;2.50;;;1.23;;
3070;SDS011;1546;47.208;9.038;2022-09-29T01:04:07;2.30;;;1.20;;
3070;SDS011;1546;47.208;9.038;2022-09-29T01:06:37;2.40;;;1.40;;
3070;SDS011;1546;47.208;9.038;2022-09-29T01:09:07;2.45;;;1.30;;
3070;SDS011;1546;47.208;9.038;2022-09-29T01:11:40;2.45;;;1.50;;
3070;SDS011;1546;47.208;9.038;2022-09-29T01:14:08;3.05;;;1.27;;
3070;SDS011;1546;47.208;9.038;2022-09-29T01:16:36;2.30;;;1.20;;
3070;SDS011;1546;47.208;9.038;2022-09-29T01:19:06;2.55;;;1.30;;
3070;SDS011;1546;47.208;9.038;2022-09-29T01:21:39;2.40;;;1.33;;
3070;SDS011;1546;47.208;9.038;2022-09-29T01:24:23;2.30;;;1.10;;
3070;SDS011;1546;47.208;9.038;2022-09-29T01:27:22;2.30;;;1.00;;
3070;SDS011;1546;47.208;9.038;2022-09-29T01:30:09;2.30;;;1.15;;
3070;SDS011;1546;47.208;9.038;2022-09-29T01:32:51;2.35;;;1.00;;
3070;SDS011;1546;47.208;9.038;2022-09-29T01:35:29;2.40;;;1.25;;
3070;SDS011;1546;47.208;9.038;2022-09-29T01:38:04;3.03;;;1.20;;
3070;SDS011;1546;47.208;9.038;2022-09-29T01:40:41;2.45;;;1.35;;
3070;SDS011;1546;47.208;9.038;2022-09-29T01:43:14;3.40;;;1.33;;
3070;SDS011;1546;47.208;9.038;2022-09-29T01:45:46;2.60;;;1.52;;
3070;SDS011;1546;47.208;9.038;2022-09-29T01:48:20;2.50;;;1.48;;
3070;SDS011;1546;47.208;9.038;2022-09-29T01:50:51;3.05;;;1.30;;
3070;SDS011;1546;47.208;9.038;2022-09-29T01:53:22;2.90;;;1.52;;
3070;SDS011;1546;47.208;9.038;2022-09-29T01:55:54;2.53;;;1.38;;
3070;SDS011;1546;47.208;9.038;2022-09-29T01:58:26;2.75;;;1.80;;
3070;SDS011;1546;47.208;9.038;2022-09-29T02:00:59;2.50;;;1.48;;
3070;SDS011;1546;47.208;9.038;2022-09-29T02:03:32;2.30;;;1.20;;
3070;SDS011;1546;47.208;9.038;2022-09-29T02:06:02;2.40;;;1.38;;
3070;SDS011;1546;47.208;9.038;2022-09-29T02:08:35;3.72;;;1.60;;
3070;SDS011;1546;47.208;9.038;2022-09-29T02:11:06;2.58;;;1.20;;
3070;SDS011;1546;47.208;9.038;2022-09-29T02:13:36;4.55;;;1.23;;
3070;SDS011;1546;47.208;9.038;2022-09-29T02:16:06;2.60;;;1.40;;
3070;SDS011;1546;47.208;9.038;2022-09-29T02:18:39;3.08;;;1.60;;
3070;SDS011;1546;47.208;9.038;2022-09-29T02:21:11;3.15;;;1.90;;
3070;SDS011;1546;47.208;9.038;2022-09-29T02:23:38;3.42;;;2.30;;
3070;SDS011;1546;47.208;9.038;2022-09-29T02:26:05;3.35;;;1.90;;
3070;SDS011;1546;47.208;9.038;2022-09-29T02:28:32;2.50;;;1.75;;
3070;SDS011;1546;47.208;9.038;2022-09-29T02:30:59;2.67;;;1.60;;
3070;SDS011;1546;47.208;9.038;2022-09-29T02:33:26;3.13;;;1.70;;
3070;SDS011;1546;47.208;9.038;2022-09-29T02:35:57;2.72;;;1.95;;
3070;SDS011;1546;47.208;9.038;2022-09-29T02:38:35;2.70;;;1.92;;
3070;SDS011;1546;47.208;9.038;2022-09-29T02:41:11;2.55;;;1.88;;
3070;SDS011;1546;47.208;9.038;2022-09-29T02:43:55;3.75;;;2.65;;
3070;SDS011;1546;47.208;9.038;2022-09-29T02:46:39;3.00;;;2.50;;
3070;SDS011;1546;47.208;9.038;2022-09-29T02:49:19;2.97;;;2.20;;
3070;SDS011;1546;47.208;9.038;2022-09-29T02:51:55;2.70;;;2.20;;
3070;SDS011;1546;47.208;9.038;2022-09-29T02:54:28;2.60;;;1.70;;
3070;SDS011;1546;47.208;9.038;2022-09-29T02:57:10;3.03;;;1.63;;
3070;SDS011;1546;47.208;9.038;2022-09-29T02:59:44;2.40;;;1.40;;
3070;SDS011;1546;47.208;9.038;2022-09-29T03:02:21;2.60;;;1.40;;
3070;SDS011;1546;47.208;9.038;2022-09-29T03:04:49;2.50;;;1.40;;
3070;SDS011;1546;47.208;9.038;2022-09-29T03:07:17;2.72;;;1.35;;
3070;SDS011;1546;47.208;9.038;2022-09-29T03:09:44;2.70;;;1.70;;
3070;SDS011;1546;47.208;9.038;2022-09-29T03:12:11;2.47;;;1.40;;
3070;SDS011;1546;47.208;9.038;2022-09-29T03:14:38;2.30;;;1.10;;
3070;SDS011;1546;47.208;9.038;2022-09-29T03:17:05;2.80;;;1.50;;
3070;SDS011;1546;47.208;9.038;2022-09-29T03:19:32;3.20;;;1.67;;
3070;SDS011;1546;47.208;9.038;2022-09-29T03:21:59;3.10;;;1.40;;
3070;SDS011;1546;47.208;9.038;2022-09-29T03:24:27;2.78;;;1.20;;
3070;SDS011;1546;47.208;9.038;2022-09-29T03:26:54;5.15;;;1.52;;
3070;SDS011;1546;47.208;9.038;2022-09-29T03:29:20;3.30;;;1.50;;
3070;SDS011;1546;47.208;9.038;2022-09-29T03:31:47;4.18;;;1.20;;
3070;SDS011;1546;47.208;9.038;2022-09-29T03:34:14;3.28;;;1.50;;
3070;SDS011;1546;47.208;9.038;2022-09-29T03:36:41;2.70;;;1.40;;
3070;SDS011;1546;47.208;9.038;2022-09-29T03:39:08;3.78;;;1.70;;
3070;SDS011;1546;47.208;9.038;2022-09-29T03:41:36;3.47;;;1.45;;
3070;SDS011;1546;47.208;9.038;2022-09-29T03:44:03;2.72;;;1.70;;
3070;SDS011;1546;47.208;9.038;2022-09-29T03:46:30;2.40;;;1.40;;
3070;SDS011;1546;47.208;9.038;2022-09-29T03:48:57;3.10;;;1.67;;
3070;SDS011;1546;47.208;9.038;2022-09-29T03:51:24;2.55;;;1.67;;
3070;SDS011;1546;47.208;9.038;2022-09-29T03:53:50;3.03;;;2.00;;
3070;SDS011;1546;47.208;9.038;2022-09-29T03:56:17;2.60;;;1.60;;
3070;SDS011;1546;47.208;9.038;2022-09-29T03:58:45;3.97;;;1.90;;
3070;SDS011;1546;47.208;9.038;2022-09-29T04:01:12;3.00;;;2.03;;
3070;SDS011;1546;47.208;9.038;2022-09-29T04:03:39;2.90;;;1.60;;
3070;SDS011;1546;47.208;9.038;2022-09-29T04:06:06;4.10;;;1.60;;
3070;SDS011;1546;47.208;9.038;2022-09-29T04:08:34;2.70;;;1.38;;
3070;SDS011;1546;47.208;9.038;2022-09-29T04:11:01;2.80;;;1.67;;
3070;SDS011;1546;47.208;9.038;2022-09-29T04:13:29;2.95;;;1.58;;
3070;SDS011;1546;47.208;9.038;2022-09-29T04:15:57;3.78;;;1.85;;
3070;SDS011;1546;47.208;9.038;2022-09-29T04:18:25;4.55;;;1.65;;
3070;SDS011;1546;47.208;9.038;2022-09-29T04:20:52;2.75;;;1.90;;
3070;SDS011;1546;47.208;9.038;2022-09-29T04:23:21;5.55;;;1.83;;
3070;SDS011;1546;47.208;9.038;2022-09-29T04:25:48;3.55;;;1.60;;
3070;SDS011;1546;47.208;9.038;2022-09-29T04:28:15;4.25;;;1.38;;
3070;SDS011;1546;47.208;9.038;2022-09-29T04:30:41;2.83;;;1.52;;
3070;SDS011;1546;47.208;9.038;2022-09-29T04:33:10;3.22;;;1.98;;
3070;SDS011;1546;47.208;9.038;2022-09-29T04:35:37;2.60;;;1.45;;
3070;SDS011;1546;47.208;9.038;2022-09-29T04:38:03;5.68;;;2.10;;
3070;SDS011;1546;47.208;9.038;2022-09-29T04:40:32;2.90;;;1.90;;
3070;SDS011;1546;47.208;9.038;2022-09-29T04:42:59;2.60;;;1.80;;
3070;SDS011;1546;47.208;9.038;2022-09-29T04:45:26;2.75;;;1.73;;
3070;SDS011;1546;47.208;9.038;2022-09-29T04:47:53;2.70;;;1.40;;
3070;SDS011;1546;47.208;9.038;2022-09-29T04:50:21;3.08;;;1.88;;
3070;SDS011;1546;47.208;9.038;2022-09-29T04:52:48;2.90;;;1.77;;
3070;SDS011;1546;47.208;9.038;2022-09-29T04:55:14;2.70;;;1.30;;
3070;SDS011;1546;47.208;9.038;2022-09-29T04:57:42;3.55;;;1.60;;
3070;SDS011;1546;47.208;9.038;2022-09-29T05:00:10;6.20;;;1.60;;
3070;SDS011;1546;47.208;9.038;2022-09-29T05:02:38;2.67;;;1.50;;
3070;SDS011;1546;47.208;9.038;2022-09-29T05:05:05;3.17;;;1.55;;
3070;SDS011;1546;47.208;9.038;2022-09-29T05:07:35;3.22;;;1.67;;
3070;SDS011;1546;47.208;9.038;2022-09-29T05:10:02;3.13;;;1.30;;
3070;SDS011;1546;47.208;9.038;2022-09-29T05:12:30;3.20;;;1.85;;
3070;SDS011;1546;47.208;9.038;2022-09-29T05:14:56;4.05;;;1.48;;
3070;SDS011;1546;47.208;9.038;2022-09-29T05:17:23;3.13;;;1.00;;
3070;SDS011;1546;47.208;9.038;2022-09-29T05:19:50;4.55;;;1.35;;
3070;SDS011;1546;47.208;9.038;2022-09-29T05:22:17;2.63;;;1.08;;
3070;SDS011;1546;47.208;9.038;2022-09-29T05:24:49;4.18;;;1.33;;
3070;SDS011;1546;47.208;9.038;2022-09-29T05:27:16;3.17;;;1.50;;
3070;SDS011;1546;47.208;9.038;2022-09-29T05:29:43;2.75;;;1.30;;
3070;SDS011;1546;47.208;9.038;2022-09-29T05:32:10;3.67;;;1.17;;
3070;SDS011;1546;47.208;9.038;2022-09-29T05:34:37;3.70;;;1.30;;
3070;SDS011;1546;47.208;9.038;2022-09-29T05:37:04;2.60;;;1.27;;
3070;SDS011;1546;47.208;9.038;2022-09-29T05:39:31;2.80;;;1.58;;
3070;SDS011;1546;47.208;9.038;2022-09-29T05:42:00;3.28;;;1.80;;
3070;SDS011;1546;47.208;9.038;2022-09-29T05:44:27;3.00;;;1.73;;
3070;SDS011;1546;47.208;9.038;2022-09-29T05:46:54;3.05;;;1.42;;
3070;SDS011;1546;47.208;9.038;2022-09-29T05:49:20;2.80;;;1.50;;
3070;SDS011;1546;47.208;9.038;2022-09-29T05:51:47;6.38;;;1.60;;
3070;SDS011;1546;47.208;9.038;2022-09-29T05:54:14;5.38;;;1.70;;
3070;SDS011;1546;47.208;9.038;2022-09-29T05:56:41;3.75;;;1.98;;
3070;SDS011;1546;47.208;9.038;2022-09-29T05:59:10;3.60;;;2.00;;
3070;SDS011;1546;47.208;9.038;2022-09-29T06:01:37;3.80;;;2.40;;
3070;SDS011;1546;47.208;9.038;2022-09-29T06:04:04;7.28;;;1.85;;
3070;SDS011;1546;47.208;9.038;2022-09-29T06:06:31;4.07;;;2.45;;
3070;SDS011;1546;47.208;9.038;2022-09-29T06:09:00;4.70;;;2.40;;
3070;SDS011;1546;47.208;9.038;2022-09-29T06:11:27;4.75;;;2.10;;
3070;SDS011;1546;47.208;9.038;2022-09-29T06:13:56;5.43;;;2.40;;
3070;SDS011;1546;47.208;9.038;2022-09-29T06:16:25;5.22;;;2.15;;
3070;SDS011;1546;47.208;9.038;2022-09-29T06:18:53;4.45;;;1.73;;
3070;SDS011;1546;47.208;9.038;2022-09-29T06:21:21;3.75;;;1.85;;
3070;SDS011;1546;47.208;9.038;2022-09-29T06:23:49;3.78;;;1.60;;
3070;SDS011;1546;47.208;9.038;2022-09-29T06:26:17;3.47;;;1.40;;
3070;SDS011;1546;47.208;9.038;2022-09-29T06:28:45;3.25;;;1.30;;
3070;SDS011;1546;47.208;9.038;2022-09-29T06:31:13;3.45;;;1.30;;
3070;SDS011;1546;47.208;9.038;2022-09-29T06:33:44;4.25;;;2.25;;
3070;SDS011;1546;47.208;9.038;2022-09-29T06:36:15;3.58;;;1.55;;
3070;SDS011;1546;47.208;9.038;2022-09-29T06:39:00;3.05;;;1.23;;
3070;SDS011;1546;47.208;9.038;2022-09-29T06:41:27;3.35;;;1.25;;
3070;SDS011;1546;47.208;9.038;2022-09-29T06:43:55;3.92;;;1.63;;
3070;SDS011;1546;47.208;9.038;2022-09-29T06:46:22;5.80;;;1.95;;
3070;SDS011;1546;47.208;9.038;2022-09-29T06:48:52;15.18;;;2.67;;
3070;SDS011;1546;47.208;9.038;2022-09-29T06:51:19;3.13;;;1.40;;
3070;SDS011;1546;47.208;9.038;2022-09-29T06:53:46;4.00;;;1.27;;
3070;SDS011;1546;47.208;9.038;2022-09-29T06:56:13;4.40;;;2.03;;
3070;SDS011;1546;47.208;9.038;2022-09-29T06:58:40;19.77;;;3.63;;
3070;SDS011;1546;47.208;9.038;2022-09-29T07:01:08;45.38;;;20.40;;
3070;SDS011;1546;47.208;9.038;2022-09-29T07:03:36;39.58;;;16.83;;
3070;SDS011;1546;47.208;9.038;2022-09-29T07:06:04;20.58;;;9.15;;
3070;SDS011;1546;47.208;9.038;2022-09-29T07:08:32;20.83;;;10.23;;
3070;SDS011;1546;47.208;9.038;2022-09-29T07:11:00;9.35;;;5.47;;
3070;SDS011;1546;47.208;9.038;2022-09-29T07:13:27;11.80;;;6.90;;
3070;SDS011;1546;47.208;9.038;2022-09-29T07:15:54;10.23;;;5.43;;
3070;SDS011;1546;47.208;9.038;2022-09-29T07:18:21;6.97;;;4.50;;
3070;SDS011;1546;47.208;9.038;2022-09-29T07:20:48;5.78;;;4.00;;
3070;SDS011;1546;47.208;9.038;2022-09-29T07:23:16;6.35;;;4.40;;
3070;SDS011;1546;47.208;9.038;2022-09-29T07:25:44;6.05;;;3.63;;
3070;SDS011;1546;47.208;9.038;2022-09-29T07:28:11;5.78;;;3.85;;
3070;SDS011;1546;47.208;9.038;2022-09-29T07:30:38;6.80;;;4.50;;
3070;SDS011;1546;47.208;9.038;2022-09-29T07:33:05;6.18;;;4.38;;
3070;SDS011;1546;47.208;9.038;2022-09-29T07:35:32;6.45;;;4.05;;
3070;SDS011;1546;47.208;9.038;2022-09-29T07:37:59;5.95;;;4.20;;
3070;SDS011;1546;47.208;9.038;2022-09-29T07:40:27;5.80;;;3.90;;
3070;SDS011;1546;47.208;9.038;2022-09-29T07:42:55;5.50;;;3.50;;
3070;SDS011;1546;47.208;9.038;2022-09-29T07:45:21;5.90;;;4.35;;
3070;SDS011;1546;47.208;9.038;2022-09-29T07:47:48;7.93;;;5.15;;
3070;SDS011;1546;47.208;9.038;2022-09-29T07:50:15;5.75;;;4.10;;
3070;SDS011;1546;47.208;9.038;2022-09-29T07:52:42;5.45;;;3.75;;
3070;SDS011;1546;47.208;9.038;2022-09-29T07:55:09;4.40;;;3.15;;
3070;SDS011;1546;47.208;9.038;2022-09-29T07:57:37;11.02;;;4.82;;
3070;SDS011;1546;47.208;9.038;2022-09-29T08:00:04;6.28;;;4.13;;
3070;SDS011;1546;47.208;9.038;2022-09-29T08:02:31;6.28;;;4.18;;
3070;SDS011;1546;47.208;9.038;2022-09-29T08:04:58;6.10;;;4.00;;
3070;SDS011;1546;47.208;9.038;2022-09-29T08:07:25;6.45;;;4.55;;
3070;SDS011;1546;47.208;9.038;2022-09-29T08:09:51;5.70;;;3.78;;
3070;SDS011;1546;47.208;9.038;2022-09-29T08:12:18;6.68;;;4.32;;
3070;SDS011;1546;47.208;9.038;2022-09-29T08:14:46;7.55;;;4.70;;
3070;SDS011;1546;47.208;9.038;2022-09-29T08:17:14;5.82;;;4.00;;
3070;SDS011;1546;47.208;9.038;2022-09-29T08:19:40;5.32;;;4.00;;
3070;SDS011;1546;47.208;9.038;2022-09-29T08:22:07;5.63;;;3.95;;
3070;SDS011;1546;47.208;9.038;2022-09-29T08:24:34;4.45;;;2.72;;
3070;SDS011;1546;47.208;9.038;2022-09-29T08:27:04;5.50;;;3.33;;
3070;SDS011;1546;47.208;9.038;2022-09-29T08:29:31;6.32;;;4.15;;
3070;SDS011;1546;47.208;9.038;2022-09-29T08:31:59;7.63;;;3.85;;
3070;SDS011;1546;47.208;9.038;2022-09-29T08:34:26;5.97;;;4.10;;
3070;SDS011;1546;47.208;9.038;2022-09-29T08:36:53;6.22;;;3.72;;
3070;SDS011;1546;47.208;9.038;2022-09-29T08:39:20;5.35;;;3.70;;
3070;SDS011;1546;47.208;9.038;2022-09-29T08:41:52;5.85;;;3.58;;
3070;SDS011;1546;47.208;9.038;2022-09-29T08:44:25;5.15;;;3.53;;
3070;SDS011;1546;47.208;9.038;2022-09-29T08:47:00;5.75;;;4.10;;
3070;SDS011;1546;47.208;9.038;2022-09-29T08:49:34;4.93;;;3.25;;
3070;SDS011;1546;47.208;9.038;2022-09-29T08:52:08;5.82;;;3.60;;
3070;SDS011;1546;47.208;9.038;2022-09-29T08:54:40;6.63;;;3.97;;
3070;SDS011;1546;47.208;9.038;2022-09-29T08:57:10;6.75;;;4.20;;
3070;SDS011;1546;47.208;9.038;2022-09-29T08:59:42;5.75;;;3.58;;
3070;SDS011;1546;47.208;9.038;2022-09-29T09:02:21;5.68;;;4.10;;
3070;SDS011;1546;47.208;9.038;2022-09-29T09:05:20;5.60;;;3.47;;
3070;SDS011;1546;47.208;9.038;2022-09-29T09:08:01;4.13;;;2.85;;
3070;SDS011;1546;47.208;9.038;2022-09-29T09:10:35;4.95;;;2.85;;
3070;SDS011;1546;47.208;9.038;2022-09-29T09:13:19;5.35;;;3.58;;
3070;SDS011;1546;47.208;9.038;2022-09-29T09:21:48;4.55;;;2.85;;
3070;SDS011;1546;47.208;9.038;2022-09-29T09:24:27;5.75;;;3.83;;
3070;SDS011;1546;47.208;9.038;2022-09-29T09:27:04;5.28;;;3.33;;
3070;SDS011;1546;47.208;9.038;2022-09-29T09:29:38;5.50;;;3.97;;
3070;SDS011;1546;47.208;9.038;2022-09-29T09:32:08;4.72;;;3.40;;
3070;SDS011;1546;47.208;9.038;2022-09-29T09:34:39;5.32;;;3.45;;
3070;SDS011;1546;47.208;9.038;2022-09-29T09:37:12;5.43;;;3.60;;
3070;SDS011;1546;47.208;9.038;2022-09-29T09:39:45;4.57;;;3.10;;
3070;SDS011;1546;47.208;9.038;2022-09-29T09:42:17;5.70;;;3.70;;
3070;SDS011;1546;47.208;9.038;2022-09-29T09:44:48;4.20;;;2.78;;
3070;SDS011;1546;47.208;9.038;2022-09-29T09:47:21;4.95;;;2.58;;
3070;SDS011;1546;47.208;9.038;2022-09-29T09:49:53;4.68;;;2.80;;
3070;SDS011;1546;47.208;9.038;2022-09-29T09:52:23;4.57;;;2.70;;
3070;SDS011;1546;47.208;9.038;2022-09-29T09:54:57;15.50;;;3.85;;
3070;SDS011;1546;47.208;9.038;2022-09-29T10:00:29;5.45;;;3.15;;
3070;SDS011;1546;47.208;9.038;2022-09-29T10:03:02;4.70;;;3.28;;
3070;SDS011;1546;47.208;9.038;2022-09-29T10:05:33;4.70;;;2.90;;
3070;SDS011;1546;47.208;9.038;2022-09-29T10:08:03;4.43;;;3.05;;
3070;SDS011;1546;47.208;9.038;2022-09-29T10:10:31;4.20;;;2.60;;
3070;SDS011;1546;47.208;9.038;2022-09-29T10:13:00;4.72;;;2.78;;
3070;SDS011;1546;47.208;9.038;2022-09-29T10:15:30;6.00;;;3.13;;
3070;SDS011;1546;47.208;9.038;2022-09-29T10:18:02;4.70;;;3.40;;
3070;SDS011;1546;47.208;9.038;2022-09-29T10:20:37;4.60;;;3.03;;
3070;SDS011;1546;47.208;9.038;2022-09-29T10:23:19;5.45;;;2.55;;
3070;SDS011;1546;47.208;9.038;2022-09-29T10:25:50;4.05;;;2.75;;
3070;SDS011;1546;47.208;9.038;2022-09-29T10:28:20;4.95;;;3.45;;
3070;SDS011;1546;47.208;9.038;2022-09-29T10:30:48;5.82;;;3.60;;
3070;SDS011;1546;47.208;9.038;2022-09-29T10:33:16;4.28;;;3.05;;
3070;SDS011;1546;47.208;9.038;2022-09-29T10:35:48;3.95;;;2.72;;
3070;SDS011;1546;47.208;9.038;2022-09-29T10:38:27;4.05;;;2.38;;
3070;SDS011;1546;47.208;9.038;2022-09-29T10:40:55;3.97;;;2.60;;
3070;SDS011;1546;47.208;9.038;2022-09-29T10:43:24;4.13;;;2.70;;
3070;SDS011;1546;47.208;9.038;2022-09-29T10:45:52;7.10;;;3.10;;
3070;SDS011;1546;47.208;9.038;2022-09-29T10:48:22;4.47;;;2.90;;
3070;SDS011;1546;47.208;9.038;2022-09-29T10:50:52;4.13;;;2.50;;
3070;SDS011;1546;47.208;9.038;2022-09-29T10:53:27;5.25;;;3.08;;
3070;SDS011;1546;47.208;9.038;2022-09-29T10:55:59;3.85;;;2.25;;
3070;SDS011;1546;47.208;9.038;2022-09-29T10:58:40;6.72;;;3.42;;
3070;SDS011;1546;47.208;9.038;2022-09-29T11:01:10;4.20;;;2.72;;
3070;SDS011;1546;47.208;9.038;2022-09-29T11:03:39;5.53;;;3.30;;
3070;SDS011;1546;47.208;9.038;2022-09-29T11:06:14;4.85;;;3.50;;
3070;SDS011;1546;47.208;9.038;2022-09-29T11:08:57;6.10;;;4.03;;
3070;SDS011;1546;47.208;9.038;2022-09-29T11:11:26;6.00;;;3.83;;
3070;SDS011;1546;47.208;9.038;2022-09-29T11:13:55;7.05;;;4.03;;
3070;SDS011;1546;47.208;9.038;2022-09-29T11:16:25;5.07;;;3.30;;
3070;SDS011;1546;47.208;9.038;2022-09-29T11:18:54;5.38;;;3.60;;
3070;SDS011;1546;47.208;9.038;2022-09-29T11:21:47;3.85;;;2.53;;
3070;SDS011;1546;47.208;9.038;2022-09-29T11:24:32;5.05;;;3.45;;
3070;SDS011;1546;47.208;9.038;2022-09-29T11:27:14;5.50;;;3.10;;
3070;SDS011;1546;47.208;9.038;2022-09-29T11:29:53;4.35;;;2.80;;
3070;SDS011;1546;47.208;9.038;2022-09-29T11:32:29;4.10;;;2.53;;
3070;SDS011;1546;47.208;9.038;2022-09-29T11:35:10;4.80;;;2.67;;
3070;SDS011;1546;47.208;9.038;2022-09-29T11:37:52;6.30;;;2.60;;
3070;SDS011;1546;47.208;9.038;2022-09-29T11:40:30;8.27;;;2.67;;
3070;SDS011;1546;47.208;9.038;2022-09-29T11:43:10;4.50;;;2.88;;
3070;SDS011;1546;47.208;9.038;2022-09-29T11:45:52;3.95;;;2.20;;
3070;SDS011;1546;47.208;9.038;2022-09-29T11:48:41;4.40;;;2.47;;
3070;SDS011;1546;47.208;9.038;2022-09-29T11:51:19;4.32;;;2.20;;
3070;SDS011;1546;47.208;9.038;2022-09-29T11:54:01;3.22;;;1.60;;
3070;SDS011;1546;47.208;9.038;2022-09-29T11:56:40;2.97;;;1.25;;
3070;SDS011;1546;47.208;9.038;2022-09-29T12:02:14;3.55;;;2.15;;
3070;SDS011;1546;47.208;9.038;2022-09-29T12:04:54;3.42;;;1.60;;
3070;SDS011;1546;47.208;9.038;2022-09-29T12:07:28;4.00;;;1.95;;
3070;SDS011;1546;47.208;9.038;2022-09-29T12:10:14;3.00;;;1.33;;
3070;SDS011;1546;47.208;9.038;2022-09-29T12:12:52;3.00;;;1.35;;
3070;SDS011;1546;47.208;9.038;2022-09-29T12:15:29;3.05;;;1.40;;
3070;SDS011;1546;47.208;9.038;2022-09-29T12:18:02;3.55;;;2.03;;
3070;SDS011;1546;47.208;9.038;2022-09-29T12:20:36;3.70;;;1.98;;
3070;SDS011;1546;47.208;9.038;2022-09-29T12:23:09;4.28;;;1.55;;
3070;SDS011;1546;47.208;9.038;2022-09-29T12:25:39;4.68;;;1.65;;
3070;SDS011;1546;47.208;9.038;2022-09-29T12:28:16;3.05;;;1.20;;
3070;SDS011;1546;47.208;9.038;2022-09-29T12:30:46;3.53;;;1.70;;
3070;SDS011;1546;47.208;9.038;2022-09-29T12:33:19;3.00;;;1.52;;
3070;SDS011;1546;47.208;9.038;2022-09-29T12:35:53;4.65;;;1.90;;
3070;SDS011;1546;47.208;9.038;2022-09-29T12:38:30;2.70;;;1.10;;
3070;SDS011;1546;47.208;9.038;2022-09-29T12:41:04;2.60;;;1.05;;
3070;SDS011;1546;47.208;9.038;2022-09-29T12:43:38;3.17;;;1.58;;
3070;SDS011;1546;47.208;9.038;2022-09-29T12:46:12;2.75;;;1.10;;
3070;SDS011;1546;47.208;9.038;2022-09-29T12:48:48;2.95;;;1.00;;
3070;SDS011;1546;47.208;9.038;2022-09-29T12:51:26;3.28;;;0.80;;
3070;SDS011;1546;47.208;9.038;2022-09-29T12:54:06;3.38;;;1.00;;
3070;SDS011;1546;47.208;9.038;2022-09-29T12:56:42;6.35;;;1.30;;
3070;SDS011;1546;47.208;9.038;2022-09-29T12:59:13;3.00;;;1.30;;
3070;SDS011;1546;47.208;9.038;2022-09-29T13:01:47;2.80;;;0.90;;
3070;SDS011;1546;47.208;9.038;2022-09-29T13:04:30;2.75;;;1.00;;
3070;SDS011;1546;47.208;9.038;2022-09-29T13:07:25;2.60;;;1.10;;
3070;SDS011;1546;47.208;9.038;2022-09-29T13:10:18;3.72;;;0.85;;
3070;SDS011;1546;47.208;9.038;2022-09-29T13:16:15;2.60;;;0.80;;
3070;SDS011;1546;47.208;9.038;2022-09-29T13:19:04;3.20;;;1.00;;
3070;SDS011;1546;47.208;9.038;2022-09-29T13:22:04;2.85;;;1.10;;
3070;SDS011;1546;47.208;9.038;2022-09-29T13:24:49;3.40;;;1.15;;
3070;SDS011;1546;47.208;9.038;2022-09-29T13:27:24;4.22;;;1.67;;
3070;SDS011;1546;47.208;9.038;2022-09-29T13:29:59;2.60;;;1.00;;
3070;SDS011;1546;47.208;9.038;2022-09-29T13:32:31;3.00;;;1.00;;
3070;SDS011;1546;47.208;9.038;2022-09-29T13:35:09;3.10;;;1.50;;
3070;SDS011;1546;47.208;9.038;2022-09-29T13:37:41;2.85;;;1.10;;
3070;SDS011;1546;47.208;9.038;2022-09-29T13:40:19;2.70;;;1.00;;
3070;SDS011;1546;47.208;9.038;2022-09-29T13:42:49;3.40;;;1.25;;
3070;SDS011;1546;47.208;9.038;2022-09-29T13:51:21;5.35;;;1.15;;
3070;SDS011;1546;47.208;9.038;2022-09-29T13:54:25;2.70;;;1.10;;
3070;SDS011;1546;47.208;9.038;2022-09-29T13:57:04;4.35;;;1.20;;
3070;SDS011;1546;47.208;9.038;2022-09-29T14:03:02;2.90;;;1.20;;
3070;SDS011;1546;47.208;9.038;2022-09-29T14:05:36;2.85;;;1.00;;
3070;SDS011;1546;47.208;9.038;2022-09-29T14:08:15;6.32;;;3.22;;
3070;SDS011;1546;47.208;9.038;2022-09-29T14:10:46;4.80;;;2.55;;
3070;SDS011;1546;47.208;9.038;2022-09-29T14:13:20;4.35;;;1.33;;
3070;SDS011;1546;47.208;9.038;2022-09-29T14:15:51;4.85;;;3.85;;
3070;SDS011;1546;47.208;9.038;2022-09-29T14:18:32;3.45;;;1.25;;
3070;SDS011;1546;47.208;9.038;2022-09-29T14:21:03;2.60;;;0.90;;
3070;SDS011;1546;47.208;9.038;2022-09-29T14:23:50;3.80;;;1.15;;
3070;SDS011;1546;47.208;9.038;2022-09-29T14:29:13;3.25;;;1.20;;
3070;SDS011;1546;47.208;9.038;2022-09-29T14:31:44;19.45;;;14.10;;
3070;SDS011;1546;47.208;9.038;2022-09-29T14:34:16;3.90;;;2.05;;
3070;SDS011;1546;47.208;9.038;2022-09-29T14:36:46;7.80;;;3.17;;
3070;SDS011;1546;47.208;9.038;2022-09-29T14:39:14;9.38;;;3.83;;
3070;SDS011;1546;47.208;9.038;2022-09-29T14:41:42;4.97;;;2.85;;
3070;SDS011;1546;47.208;9.038;2022-09-29T14:44:11;4.85;;;2.33;;
3070;SDS011;1546;47.208;9.038;2022-09-29T14:46:46;13.30;;;9.30;;
3070;SDS011;1546;47.208;9.038;2022-09-29T14:50:03;21.45;;;16.50;;
3070;SDS011;1546;47.208;9.038;2022-09-29T14:53:16;3.50;;;1.60;;
3070;SDS011;1546;47.208;9.038;2022-09-29T14:56:02;6.60;;;2.55;;
3070;SDS011;1546;47.208;9.038;2022-09-29T14:58:45;3.80;;;1.80;;
3070;SDS011;1546;47.208;9.038;2022-09-29T15:01:24;4.65;;;1.90;;
3070;SDS011;1546;47.208;9.038;2022-09-29T15:03:53;4.03;;;1.60;;
3070;SDS011;1546;47.208;9.038;2022-09-29T15:06:24;3.67;;;1.60;;
3070;SDS011;1546;47.208;9.038;2022-09-29T15:08:54;3.50;;;1.40;;
3070;SDS011;1546;47.208;9.038;2022-09-29T15:11:24;3.20;;;1.40;;
3070;SDS011;1546;47.208;9.038;2022-09-29T15:13:56;2.97;;;1.05;;
3070;SDS011;1546;47.208;9.038;2022-09-29T15:16:32;3.55;;;1.65;;
3070;SDS011;1546;47.208;9.038;2022-09-29T15:19:12;5.00;;;1.95;;
3070;SDS011;1546;47.208;9.038;2022-09-29T15:21:57;3.35;;;1.52;;
3070;SDS011;1546;47.208;9.038;2022-09-29T15:24:40;3.20;;;1.20;;
3070;SDS011;1546;47.208;9.038;2022-09-29T15:27:18;3.80;;;2.00;;
3070;SDS011;1546;47.208;9.038;2022-09-29T15:29:46;3.88;;;2.00;;
3070;SDS011;1546;47.208;9.038;2022-09-29T15:32:21;5.13;;;1.77;;
3070;SDS011;1546;47.208;9.038;2022-09-29T15:34:50;3.42;;;1.85;;
3070;SDS011;1546;47.208;9.038;2022-09-29T15:37:19;4.07;;;1.92;;
3070;SDS011;1546;47.208;9.038;2022-09-29T15:39:46;3.50;;;1.85;;
3070;SDS011;1546;47.208;9.038;2022-09-29T15:42:17;4.68;;;2.10;;
3070;SDS011;1546;47.208;9.038;2022-09-29T15:44:51;5.00;;;2.67;;
3070;SDS011;1546;47.208;9.038;2022-09-29T15:47:27;5.05;;;2.50;;
3070;SDS011;1546;47.208;9.038;2022-09-29T15:49:59;4.68;;;2.20;;
3070;SDS011;1546;47.208;9.038;2022-09-29T15:52:31;4.85;;;2.40;;
3070;SDS011;1546;47.208;9.038;2022-09-29T15:54:59;4.35;;;2.45;;
3070;SDS011;1546;47.208;9.038;2022-09-29T15:57:27;4.40;;;2.20;;
3070;SDS011;1546;47.208;9.038;2022-09-29T16:03:20;12.63;;;4.45;;
3070;SDS011;1546;47.208;9.038;2022-09-29T16:06:04;4.30;;;2.42;;
3070;SDS011;1546;47.208;9.038;2022-09-29T16:08:39;7.65;;;2.70;;
3070;SDS011;1546;47.208;9.038;2022-09-29T16:11:14;4.10;;;2.15;;
3070;SDS011;1546;47.208;9.038;2022-09-29T16:13:49;4.35;;;1.88;;
3070;SDS011;1546;47.208;9.038;2022-09-29T16:16:23;4.03;;;2.10;;